createdAt,value
2023-05-14T00:00:38.676Z,100822.80
2023-05-14T00:03:27.167Z,100825.00
2023-05-14T00:05:55.664Z,100832.20
2023-05-14T00:08:24.039Z,100832.00
2023-05-14T00:10:52.661Z,100833.00
2023-05-14T00:13:21.253Z,100834.40
2023-05-14T00:15:49.706Z,100831.40
2023-05-14T00:18:18.288Z,100832.20
2023-05-14T00:20:46.657Z,100834.60
2023-05-14T00:23:15.021Z,100839.40
2023-05-14T00:25:43.338Z,100838.00
2023-05-14T00:28:11.635Z,100838.00
2023-05-14T00:30:40.722Z,100833.80
2023-05-14T00:33:09.126Z,100833.60
2023-05-14T00:35:37.807Z,100829.80
2023-05-14T00:38:06.154Z,100827.20
2023-05-14T00:40:34.546Z,100817.40
2023-05-14T00:43:03.919Z,100811.20
2023-05-14T00:45:32.439Z,100807.40
2023-05-14T00:48:00.875Z,100804.80
2023-05-14T00:50:29.297Z,100801.20
2023-05-14T00:52:57.837Z,100797.40
2023-05-14T00:55:26.860Z,100795.80
2023-05-14T00:57:58.253Z,100794.00
2023-05-14T01:00:26.923Z,100793.60
2023-05-14T01:02:55.395Z,100801.60
2023-05-14T01:05:27.513Z,100803.40
2023-05-14T01:08:10.668Z,100805.20
2023-05-14T01:11:06.140Z,100806.00
2023-05-14T01:13:40.847Z,100801.40
2023-05-14T01:16:14.304Z,100804.20
2023-05-14T01:18:49.500Z,100798.40
2023-05-14T01:21:43.224Z,100796.20
2023-05-14T01:24:11.580Z,100795.40
2023-05-14T01:26:39.994Z,100791.80
2023-05-14T01:29:23.243Z,100791.00
2023-05-14T01:31:54.494Z,100799.00
2023-05-14T01:34:25.691Z,100790.20
2023-05-14T01:36:57.039Z,100790.40
2023-05-14T01:39:27.324Z,100785.60
2023-05-14T01:41:56.001Z,100786.20
2023-05-14T01:44:25.116Z,100786.00
2023-05-14T01:46:53.496Z,100782.60
2023-05-14T01:49:21.850Z,100779.20
2023-05-14T01:51:50.466Z,100771.20
2023-05-14T01:54:18.797Z,100777.00
2023-05-14T01:56:47.167Z,100778.20
2023-05-14T01:59:16.193Z,100777.60
2023-05-14T02:01:44.627Z,100773.20
2023-05-14T02:04:13.081Z,100775.40
2023-05-14T02:06:43.115Z,100774.80
2023-05-14T02:09:11.496Z,100778.00
2023-05-14T02:11:40.110Z,100783.20
2023-05-14T02:14:08.462Z,100785.40
2023-05-14T02:16:36.829Z,100789.40
2023-05-14T02:19:05.311Z,100790.40
2023-05-14T02:21:33.711Z,100796.80
2023-05-14T02:24:02.145Z,100794.00
2023-05-14T02:26:30.439Z,100792.80
2023-05-14T02:28:59.036Z,100796.00
2023-05-14T02:31:27.443Z,100792.80
2023-05-14T02:33:55.850Z,100797.60
2023-05-14T02:36:24.221Z,100792.60
2023-05-14T02:38:52.648Z,100796.00
2023-05-14T02:41:21.678Z,100798.00
2023-05-14T02:43:50.044Z,100795.60
2023-05-14T02:46:18.592Z,100795.80
2023-05-14T02:48:46.934Z,100786.80
2023-05-14T02:51:16.344Z,100784.60
2023-05-14T02:53:44.907Z,100780.40
2023-05-14T02:56:13.333Z,100790.20
2023-05-14T02:58:41.791Z,100791.20
2023-05-14T03:01:10.313Z,100791.20
2023-05-14T03:03:39.077Z,100789.20
2023-05-14T03:06:08.244Z,100798.40
2023-05-14T03:08:36.803Z,100797.80
2023-05-14T03:11:05.213Z,100797.00
2023-05-14T03:13:34.006Z,100796.40
2023-05-14T03:16:02.544Z,100797.40
2023-05-14T03:18:31.046Z,100794.80
2023-05-14T03:20:59.436Z,100805.80
2023-05-14T03:23:28.098Z,100807.40
2023-05-14T03:25:56.860Z,100802.40
2023-05-14T03:28:26.199Z,100804.40
2023-05-14T03:30:54.774Z,100812.00
2023-05-14T03:33:23.871Z,100816.00
2023-05-14T03:35:52.463Z,100814.20
2023-05-14T03:38:22.761Z,100820.20
2023-05-14T03:40:51.104Z,100828.60
2023-05-14T03:43:19.626Z,100827.00
2023-05-14T03:45:52.513Z,100825.60
2023-05-14T03:48:21.448Z,100822.20
2023-05-14T03:50:49.853Z,100820.40
2023-05-14T03:53:18.404Z,100819.80
2023-05-14T03:55:47.599Z,100829.40
2023-05-14T03:58:16.149Z,100833.60
2023-05-14T04:00:44.673Z,100829.80
2023-05-14T04:03:13.234Z,100838.00
2023-05-14T04:05:41.632Z,100834.20
2023-05-14T04:08:09.926Z,100832.80
2023-05-14T04:10:38.290Z,100837.60
2023-05-14T04:13:06.735Z,100841.80
2023-05-14T04:15:39.437Z,100838.80
2023-05-14T04:18:08.052Z,100843.20
2023-05-14T04:20:37.083Z,100849.40
2023-05-14T04:23:05.979Z,100842.60
2023-05-14T04:25:34.531Z,100843.40
2023-05-14T04:28:03.018Z,100849.40
2023-05-14T04:30:31.386Z,100854.20
2023-05-14T04:32:59.822Z,100855.20
2023-05-14T04:35:28.259Z,100852.80
2023-05-14T04:37:56.909Z,100849.60
2023-05-14T04:40:25.762Z,100851.60
2023-05-14T04:42:54.368Z,100855.00
2023-05-14T04:45:22.765Z,100852.00
2023-05-14T04:47:51.603Z,100853.60
2023-05-14T04:50:20.037Z,100857.80
2023-05-14T04:52:48.457Z,100862.80
2023-05-14T04:55:16.871Z,100858.80
2023-05-14T04:57:45.316Z,100858.20
2023-05-14T05:00:14.208Z,100858.00
2023-05-14T05:02:42.590Z,100867.40
2023-05-14T05:05:11.296Z,100870.40
2023-05-14T05:07:39.624Z,100873.40
2023-05-14T05:10:08.809Z,100865.00
2023-05-14T05:12:37.271Z,100865.80
2023-05-14T05:15:06.558Z,100863.00
2023-05-14T05:17:34.979Z,100864.00
2023-05-14T05:20:05.420Z,100855.80
2023-05-14T05:22:33.848Z,100856.40
2023-05-14T05:25:05.634Z,100851.60
2023-05-14T05:27:34.070Z,100836.20
2023-05-14T05:30:03.089Z,100834.00
2023-05-14T05:32:31.544Z,100836.00
2023-05-14T05:35:00.040Z,100847.40
2023-05-14T05:37:28.398Z,100845.00
2023-05-14T05:39:56.781Z,100848.00
2023-05-14T05:42:25.158Z,100841.20
2023-05-14T05:44:53.542Z,100837.60
2023-05-14T05:47:22.024Z,100836.40
2023-05-14T05:49:50.431Z,100833.40
2023-05-14T05:52:18.790Z,100830.60
2023-05-14T05:54:47.234Z,100842.20
2023-05-14T05:57:15.706Z,100844.00
2023-05-14T05:59:44.049Z,100841.60
2023-05-14T06:02:12.489Z,100844.60
2023-05-14T06:04:41.126Z,100844.80
2023-05-14T06:07:09.523Z,100846.20
2023-05-14T06:09:38.161Z,100851.20
2023-05-14T06:12:06.954Z,100857.60
2023-05-14T06:14:35.506Z,100861.00
2023-05-14T06:17:04.060Z,100856.40
2023-05-14T06:19:32.735Z,100855.60
2023-05-14T06:22:01.118Z,100853.60
2023-05-14T06:24:29.452Z,100860.20
2023-05-14T06:26:57.810Z,100859.20
2023-05-14T06:29:26.186Z,100859.80
2023-05-14T06:31:54.768Z,100862.20
2023-05-14T06:34:26.170Z,100873.40
2023-05-14T06:36:54.507Z,100866.40
2023-05-14T06:39:22.942Z,100864.20
2023-05-14T06:41:51.315Z,100867.80
2023-05-14T06:44:19.771Z,100862.40
2023-05-14T06:46:48.111Z,100865.80
2023-05-14T06:49:16.456Z,100873.60
2023-05-14T06:51:45.233Z,100877.00
2023-05-14T06:54:13.535Z,100876.80
2023-05-14T06:56:41.935Z,100876.80
2023-05-14T06:59:10.302Z,100878.80
2023-05-14T07:01:38.704Z,100872.60
2023-05-14T07:04:07.234Z,100877.20
2023-05-14T07:06:35.746Z,100868.40
2023-05-14T07:09:04.433Z,100874.80
2023-05-14T07:11:33.676Z,100878.60
2023-05-14T07:14:02.093Z,100875.00
2023-05-14T07:16:30.681Z,100874.40
2023-05-14T07:18:59.143Z,100875.40
2023-05-14T07:21:28.080Z,100872.80
2023-05-14T07:23:56.408Z,100871.60
2023-05-14T07:26:24.862Z,100881.40
2023-05-14T07:28:53.453Z,100875.00
2023-05-14T07:31:21.903Z,100874.60
2023-05-14T07:33:50.330Z,100871.80
2023-05-14T07:36:19.234Z,100878.40
2023-05-14T07:38:47.628Z,100882.80
2023-05-14T07:41:16.204Z,100877.80
2023-05-14T07:43:44.525Z,100876.80
2023-05-14T07:46:12.964Z,100876.00
2023-05-14T07:48:41.333Z,100873.20
2023-05-14T07:51:09.730Z,100871.60
2023-05-14T07:53:38.134Z,100870.00
2023-05-14T07:56:06.878Z,100864.00
2023-05-14T07:58:36.123Z,100860.40
2023-05-14T08:01:07.360Z,100862.00
2023-05-14T08:03:35.913Z,100854.60
2023-05-14T08:06:04.641Z,100856.80
2023-05-14T08:08:33.079Z,100856.40
2023-05-14T08:11:02.211Z,100858.60
2023-05-14T08:13:30.543Z,100853.20
2023-05-14T08:15:59.096Z,100846.60
2023-05-14T08:18:27.637Z,100855.60
2023-05-14T08:20:56.346Z,100856.00
2023-05-14T08:23:24.780Z,100853.00
2023-05-14T08:25:53.187Z,100856.60
2023-05-14T08:28:21.653Z,100855.80
2023-05-14T08:30:50.119Z,100857.20
2023-05-14T08:33:18.529Z,100852.40
2023-05-14T08:35:46.923Z,100845.80
2023-05-14T08:38:15.257Z,100848.20
2023-05-14T08:40:48.783Z,100844.80
2023-05-14T08:43:21.267Z,100851.40
2023-05-14T08:45:52.532Z,100842.00
2023-05-14T08:48:23.248Z,100837.00
2023-05-14T08:50:51.919Z,100829.60
2023-05-14T08:53:20.651Z,100830.80
2023-05-14T08:55:50.998Z,100827.60
2023-05-14T08:58:19.911Z,100831.80
2023-05-14T09:00:48.378Z,100837.00
2023-05-14T09:03:18.598Z,100829.80
2023-05-14T09:05:50.492Z,100831.80
2023-05-14T09:08:20.117Z,100836.00
2023-05-14T09:10:48.633Z,100825.00
2023-05-14T09:13:16.975Z,100822.00
2023-05-14T09:15:46.541Z,100821.80
2023-05-14T09:18:15.113Z,100819.00
2023-05-14T09:20:43.491Z,100818.80
2023-05-14T09:23:11.858Z,100810.60
2023-05-14T09:25:40.427Z,100814.40
2023-05-14T09:28:11.547Z,100807.80
2023-05-14T09:30:39.908Z,100803.00
2023-05-14T09:33:10.543Z,100796.80
2023-05-14T09:35:41.540Z,100793.40
2023-05-14T09:38:09.972Z,100806.80
2023-05-14T09:40:38.349Z,100799.40
2023-05-14T09:43:06.789Z,100805.40
2023-05-14T09:45:35.677Z,100799.40
2023-05-14T09:48:04.236Z,100800.80
2023-05-14T09:50:32.629Z,100797.60
2023-05-14T09:53:01.117Z,100795.40
2023-05-14T09:55:29.849Z,100796.00
2023-05-14T09:57:58.277Z,100791.20
2023-05-14T10:00:27.016Z,100794.60
2023-05-14T10:02:57.123Z,100784.80
2023-05-14T10:05:27.049Z,100786.80
2023-05-14T10:07:59.112Z,100784.60
2023-05-14T10:10:30.420Z,100789.40
2023-05-14T10:13:04.986Z,100786.20
2023-05-14T10:15:57.902Z,100784.20
2023-05-14T10:18:31.262Z,100784.20
2023-05-14T10:21:05.979Z,100782.60
2023-05-14T10:23:38.062Z,100787.60
2023-05-14T10:26:07.967Z,100784.40
2023-05-14T10:28:38.342Z,100780.20
2023-05-14T10:31:09.774Z,100781.60
2023-05-14T10:33:50.983Z,100780.00
2023-05-14T10:36:22.634Z,100787.20
2023-05-14T10:38:57.553Z,100777.80
2023-05-14T10:41:26.054Z,100778.60
2023-05-14T10:43:57.649Z,100779.80
2023-05-14T10:46:26.174Z,100772.40
2023-05-14T10:48:54.685Z,100773.40
2023-05-14T10:51:23.722Z,100768.20
2023-05-14T10:53:52.915Z,100756.80
2023-05-14T10:56:21.724Z,100759.20
2023-05-14T10:58:50.707Z,100756.20
2023-05-14T11:01:19.142Z,100753.20
2023-05-14T11:03:47.652Z,100744.80
2023-05-14T11:06:16.531Z,100734.80
2023-05-14T11:08:46.672Z,100732.00
2023-05-14T11:11:15.424Z,100724.20
2023-05-14T11:13:44.906Z,100714.40
2023-05-14T11:16:22.963Z,100713.20
2023-05-14T11:19:03.796Z,100703.00
2023-05-14T11:21:35.393Z,100693.80
2023-05-14T11:24:05.638Z,100691.80
2023-05-14T11:26:34.453Z,100688.20
2023-05-14T11:29:02.928Z,100690.80
2023-05-14T11:31:31.729Z,100686.40
2023-05-14T11:34:01.242Z,100687.80
2023-05-14T11:36:29.599Z,100683.60
2023-05-14T11:38:57.947Z,100680.60
2023-05-14T11:41:28.203Z,100676.20
2023-05-14T11:43:58.086Z,100675.60
2023-05-14T11:46:26.741Z,100671.60
2023-05-14T11:48:55.339Z,100664.60
2023-05-14T11:51:24.056Z,100662.80
2023-05-14T11:53:52.433Z,100669.40
2023-05-14T11:56:22.718Z,100669.20
2023-05-14T11:58:57.461Z,100659.00
2023-05-14T12:01:25.948Z,100657.80
2023-05-14T12:03:54.514Z,100655.40
2023-05-14T12:06:32.291Z,100654.00
2023-05-14T12:09:01.733Z,100651.20
2023-05-14T12:11:33.635Z,100647.00
2023-05-14T12:14:02.190Z,100646.20
2023-05-14T12:16:35.567Z,100631.80
2023-05-14T12:19:06.320Z,100616.80
2023-05-14T12:21:35.249Z,100622.60
2023-05-14T12:24:03.700Z,100618.20
2023-05-14T12:26:35.278Z,100620.60
2023-05-14T12:29:04.131Z,100608.20
2023-05-14T12:31:38.986Z,100603.60
2023-05-14T12:34:07.382Z,100595.20
2023-05-14T12:36:36.381Z,100600.40
2023-05-14T12:39:06.195Z,100597.00
2023-05-14T12:41:34.634Z,100587.80
2023-05-14T12:44:05.003Z,100580.20
2023-05-14T12:46:34.503Z,100588.00
2023-05-14T12:49:02.978Z,100597.00
2023-05-14T12:51:31.444Z,100587.40
2023-05-14T12:53:59.796Z,100580.00
2023-05-14T12:56:28.701Z,100580.20
2023-05-14T12:58:57.224Z,100574.20
2023-05-14T13:01:25.647Z,100575.60
2023-05-14T13:03:55.593Z,100581.40
2023-05-14T13:06:24.098Z,100582.00
2023-05-14T13:08:52.651Z,100591.20
2023-05-14T13:11:21.943Z,100589.60
2023-05-14T13:13:50.307Z,100583.40
2023-05-14T13:16:18.663Z,100587.80
2023-05-14T13:18:47.355Z,100582.40
2023-05-14T13:21:15.754Z,100569.40
2023-05-14T13:23:44.114Z,100562.00
2023-05-14T13:26:12.577Z,100559.00
2023-05-14T13:28:41.282Z,100555.80
2023-05-14T13:31:12.212Z,100560.20
2023-05-14T13:33:42.955Z,100561.40
2023-05-14T13:36:13.388Z,100571.20
2023-05-14T13:38:41.853Z,100570.60
2023-05-14T13:41:10.175Z,100566.60
2023-05-14T13:43:38.591Z,100569.00
2023-05-14T13:46:07.756Z,100554.80
2023-05-14T13:48:37.358Z,100535.40
2023-05-14T13:51:06.064Z,100515.20
2023-05-14T13:53:34.476Z,100506.60
2023-05-14T13:56:02.988Z,100502.40
2023-05-14T13:58:31.381Z,100501.00
2023-05-14T14:00:59.935Z,100500.20
2023-05-14T14:03:28.518Z,100499.40
2023-05-14T14:05:56.875Z,100500.80
2023-05-14T14:08:25.176Z,100497.00
2023-05-14T14:10:55.568Z,100509.20
2023-05-14T14:13:24.590Z,100526.60
2023-05-14T14:15:55.898Z,100533.40
2023-05-14T14:18:24.378Z,100534.80
2023-05-14T14:20:52.853Z,100532.00
2023-05-14T14:23:21.474Z,100519.40
2023-05-14T14:25:49.987Z,100514.60
2023-05-14T14:28:19.164Z,100505.60
2023-05-14T14:30:47.795Z,100502.80
2023-05-14T14:33:16.462Z,100491.40
2023-05-14T14:35:44.978Z,100488.40
2023-05-14T14:38:14.012Z,100480.40
2023-05-14T14:40:42.444Z,100474.40
2023-05-14T14:43:10.921Z,100467.60
2023-05-14T14:45:39.359Z,100458.20
2023-05-14T14:48:28.132Z,100449.80
2023-05-14T14:50:56.704Z,100450.00
2023-05-14T14:53:25.332Z,100448.00
2023-05-14T14:55:54.090Z,100451.20
2023-05-14T14:58:23.274Z,100440.80
2023-05-14T15:00:56.432Z,100435.20
2023-05-14T15:03:26.014Z,100433.40
2023-05-14T15:05:54.596Z,100431.20
2023-05-14T15:08:49.381Z,100438.60
2023-05-14T15:11:17.787Z,100446.00
2023-05-14T15:13:46.366Z,100435.80
2023-05-14T15:16:15.704Z,100423.00
2023-05-14T15:18:44.182Z,100434.60
2023-05-14T15:21:12.609Z,100443.20
2023-05-14T15:23:41.010Z,100442.00
2023-05-14T15:26:09.352Z,100440.60
2023-05-14T15:28:37.664Z,100449.00
2023-05-14T15:31:06.310Z,100442.00
2023-05-14T15:33:36.202Z,100435.60
2023-05-14T15:36:05.093Z,100442.00
2023-05-14T15:38:33.616Z,100456.00
2023-05-14T15:41:02.098Z,100467.80
2023-05-14T15:43:30.568Z,100464.40
2023-05-14T15:45:59.000Z,100444.00
2023-05-14T15:48:27.310Z,100435.00
2023-05-14T15:50:55.736Z,100442.60
2023-05-14T15:53:24.207Z,100446.20
2023-05-14T15:55:52.632Z,100451.00
2023-05-14T15:58:20.976Z,100445.80
2023-05-14T16:00:49.467Z,100443.40
2023-05-14T16:03:17.844Z,100453.60
2023-05-14T16:05:47.021Z,100454.40
2023-05-14T16:08:15.463Z,100456.80
2023-05-14T16:10:43.838Z,100459.20
2023-05-14T16:13:12.174Z,100454.00
2023-05-14T16:15:40.846Z,100445.00
2023-05-14T16:18:09.387Z,100447.00
2023-05-14T16:20:37.734Z,100455.20
2023-05-14T16:23:06.152Z,100450.40
2023-05-14T16:25:34.585Z,100449.80
2023-05-14T16:28:03.133Z,100449.40
2023-05-14T16:30:31.553Z,100447.40
2023-05-14T16:33:00.161Z,100447.20
2023-05-14T16:35:28.627Z,100441.60
2023-05-14T16:37:57.045Z,100442.80
2023-05-14T16:40:25.837Z,100450.80
2023-05-14T16:42:54.300Z,100447.00
2023-05-14T16:45:22.775Z,100445.60
2023-05-14T16:47:51.396Z,100447.60
2023-05-14T16:50:19.989Z,100446.80
2023-05-14T16:52:48.426Z,100443.20
2023-05-14T16:55:16.927Z,100437.80
2023-05-14T16:57:45.586Z,100442.80
2023-05-14T17:00:15.313Z,100446.80
2023-05-14T17:02:43.755Z,100448.20
2023-05-14T17:05:12.127Z,100449.20
2023-05-14T17:07:40.525Z,100442.40
2023-05-14T17:10:09.539Z,100440.40
2023-05-14T17:12:38.132Z,100437.00
2023-05-14T17:15:07.455Z,100436.00
2023-05-14T17:17:35.992Z,100428.60
2023-05-14T17:20:06.043Z,100423.80
2023-05-14T17:22:34.740Z,100426.00
2023-05-14T17:25:03.588Z,100426.60
2023-05-14T17:27:33.521Z,100432.80
2023-05-14T17:30:03.527Z,100426.60
2023-05-14T17:32:32.049Z,100427.20
2023-05-14T17:35:00.633Z,100424.40
2023-05-14T17:37:29.116Z,100434.00
2023-05-14T17:39:57.577Z,100427.00
2023-05-14T17:42:26.011Z,100427.20
2023-05-14T17:44:54.567Z,100426.60
2023-05-14T17:47:22.936Z,100428.80
2023-05-14T17:49:51.570Z,100434.00
2023-05-14T17:52:20.009Z,100442.60
2023-05-14T17:54:48.389Z,100444.00
2023-05-14T17:57:17.097Z,100448.40
2023-05-14T17:59:45.507Z,100453.80
2023-05-14T18:02:13.830Z,100453.60
2023-05-14T18:04:42.609Z,100455.80
2023-05-14T18:07:11.066Z,100451.20
2023-05-14T18:09:39.454Z,100448.80
2023-05-14T18:12:08.396Z,100447.40
2023-05-14T18:14:36.774Z,100452.20
2023-05-14T18:17:06.083Z,100457.20
2023-05-14T18:19:34.959Z,100460.40
2023-05-14T18:22:03.280Z,100459.60
2023-05-14T18:24:31.669Z,100462.00
2023-05-14T18:27:00.690Z,100470.40
2023-05-14T18:29:29.073Z,100471.00
2023-05-14T18:31:57.448Z,100467.20
2023-05-14T18:34:25.813Z,100469.20
2023-05-14T18:36:54.409Z,100470.60
2023-05-14T18:39:22.798Z,100471.20
2023-05-14T18:41:51.258Z,100470.20
2023-05-14T18:44:19.658Z,100472.40
2023-05-14T18:46:48.086Z,100476.20
2023-05-14T18:49:16.572Z,100480.60
2023-05-14T18:51:45.050Z,100479.80
2023-05-14T18:54:13.361Z,100477.80
2023-05-14T18:56:46.743Z,100472.40
2023-05-14T18:59:16.105Z,100466.80
2023-05-14T19:01:44.592Z,100458.80
2023-05-14T19:04:12.971Z,100456.80
2023-05-14T19:06:41.425Z,100456.60
2023-05-14T19:09:11.021Z,100467.00
2023-05-14T19:11:39.338Z,100464.80
2023-05-14T19:14:07.696Z,100459.40
2023-05-14T19:16:36.222Z,100453.60
2023-05-14T19:19:04.924Z,100453.80
2023-05-14T19:21:33.364Z,100451.60
2023-05-14T19:24:01.812Z,100447.00
2023-05-14T19:26:30.267Z,100441.20
2023-05-14T19:28:58.917Z,100442.20
2023-05-14T19:31:28.333Z,100447.00
2023-05-14T19:33:56.788Z,100448.80
2023-05-14T19:36:25.194Z,100446.20
2023-05-14T19:38:53.545Z,100455.40
2023-05-14T19:41:21.932Z,100455.40
2023-05-14T19:43:51.437Z,100449.80
2023-05-14T19:46:19.933Z,100447.40
2023-05-14T19:48:48.697Z,100440.00
2023-05-14T19:51:17.178Z,100432.80
2023-05-14T19:53:45.711Z,100425.80
2023-05-14T19:56:14.143Z,100424.60
2023-05-14T19:58:42.821Z,100416.00
2023-05-14T20:01:12.232Z,100414.40
2023-05-14T20:03:40.703Z,100415.20
2023-05-14T20:06:09.172Z,100416.40
2023-05-14T20:08:37.560Z,100420.20
2023-05-14T20:11:06.502Z,100418.80
2023-05-14T20:13:36.564Z,100420.00
2023-05-14T20:16:05.321Z,100418.40
2023-05-14T20:18:33.839Z,100413.40
2023-05-14T20:21:02.371Z,100408.40
2023-05-14T20:23:30.828Z,100405.60
2023-05-14T20:26:01.875Z,100401.00
2023-05-14T20:28:30.734Z,100399.00
2023-05-14T20:31:00.375Z,100399.60
2023-05-14T20:33:29.294Z,100398.20
2023-05-14T20:35:57.773Z,100392.60
2023-05-14T20:38:29.410Z,100396.20
2023-05-14T20:40:58.121Z,100396.20
2023-05-14T20:43:29.174Z,100395.80
2023-05-14T20:45:59.069Z,100391.00
2023-05-14T20:48:27.587Z,100393.20
2023-05-14T20:50:55.988Z,100398.20
2023-05-14T20:53:25.578Z,100400.80
2023-05-14T20:55:53.930Z,100403.40
2023-05-14T20:58:22.387Z,100406.80
2023-05-14T21:00:51.200Z,100406.80
2023-05-14T21:03:19.718Z,100401.20
2023-05-14T21:05:48.286Z,100399.80
2023-05-14T21:08:16.943Z,100402.00
2023-05-14T21:10:45.328Z,100402.00
2023-05-14T21:13:13.855Z,100397.00
2023-05-14T21:15:42.285Z,100398.60
2023-05-14T21:18:12.442Z,100394.60
2023-05-14T21:20:41.052Z,100388.00
2023-05-14T21:23:09.389Z,100382.00
2023-05-14T21:25:38.109Z,100374.20
2023-05-14T21:28:06.506Z,100375.00
2023-05-14T21:30:34.823Z,100373.00
2023-05-14T21:33:03.371Z,100368.40
2023-05-14T21:35:31.951Z,100357.80
2023-05-14T21:38:00.360Z,100344.60
2023-05-14T21:40:28.743Z,100341.40
2023-05-14T21:42:57.105Z,100332.00
2023-05-14T21:45:25.747Z,100327.20
2023-05-14T21:47:54.277Z,100322.80
2023-05-14T21:50:22.656Z,100316.60
2023-05-14T21:52:51.027Z,100303.40
2023-05-14T21:55:19.284Z,100298.40
2023-05-14T21:57:47.681Z,100293.20
2023-05-14T22:00:23.326Z,100290.20
2023-05-14T22:02:55.275Z,100297.80
2023-05-14T22:05:24.008Z,100300.60
2023-05-14T22:07:52.531Z,100288.80
2023-05-14T22:10:20.977Z,100279.20
2023-05-14T22:12:49.324Z,100287.20
2023-05-14T22:15:17.800Z,100291.80
2023-05-14T22:17:47.701Z,100290.60
2023-05-14T22:20:16.217Z,100282.80
2023-05-14T22:22:44.654Z,100276.60
2023-05-14T22:25:13.030Z,100275.80
2023-05-14T22:27:41.552Z,100271.80
2023-05-14T22:30:10.402Z,100270.00
2023-05-14T22:32:38.737Z,100270.80
2023-05-14T22:35:07.369Z,100270.00
2023-05-14T22:37:35.685Z,100271.40
2023-05-14T22:40:05.439Z,100265.80
2023-05-14T22:42:33.801Z,100272.00
2023-05-14T22:45:02.254Z,100271.20
2023-05-14T22:47:30.915Z,100278.00
2023-05-14T22:49:59.371Z,100277.80
2023-05-14T22:52:27.706Z,100276.80
2023-05-14T22:54:56.281Z,100280.00
2023-05-14T22:57:24.679Z,100277.00
2023-05-14T22:59:53.038Z,100271.80
2023-05-14T23:02:21.441Z,100271.40
2023-05-14T23:04:49.942Z,100269.60
2023-05-14T23:07:18.398Z,100271.20
2023-05-14T23:09:46.747Z,100272.40
2023-05-14T23:12:18.790Z,100267.80
2023-05-14T23:14:47.116Z,100268.60
2023-05-14T23:17:17.198Z,100270.60
2023-05-14T23:19:45.787Z,100268.20
2023-05-14T23:22:14.194Z,100258.20
2023-05-14T23:24:42.593Z,100261.20
2023-05-14T23:27:11.555Z,100259.60
2023-05-14T23:29:39.931Z,100254.40
2023-05-14T23:32:08.653Z,100258.60
2023-05-14T23:34:37.180Z,100261.80
2023-05-14T23:37:05.934Z,100256.60
2023-05-14T23:39:34.407Z,100253.40
2023-05-14T23:42:02.774Z,100250.40
2023-05-14T23:44:31.162Z,100242.40
2023-05-14T23:46:59.621Z,100242.40
2023-05-14T23:49:28.015Z,100242.80
2023-05-14T23:51:56.911Z,100242.80
2023-05-14T23:54:25.356Z,100242.00
2023-05-14T23:56:53.787Z,100244.80
2023-05-14T23:59:22.617Z,100234.40
